»·PEaware :: DAL480 KMDW-KATL

DAL480 :: KMDW-KATL

FLIGHT INFORMATION

Flight Status: Arrived
Operator:
Delta Air Lines
More flights by this operator :: More flights under this callsign
Pilot: Richard S. (14671)
Aircraft: BOEING 737-800
(B738)
More flights by this aircraft type
Origin: KMDW Chicago-Midway
United States
Destination: KATL Hartsfield-Jackson Atlanta
United States
More flights between these airports :: More routes between these airports
Route: CMSKY CARYN CYBIL PXV BNA NEWBB IHAVE KNGGG DRMMM1
File this flight plan on PilotEdge
Remarks: , WWW.TWITCH.TV / CONFL1CT10N
Altitude:
(Current/Filed)
37,000ft
Speed:
(Current/Filed)
0kts
Departed: 06-Jun-17 04:42 PM
Arrived: 06-Jun-17 06:06 PM
Distance/Time
Traveled:
513nm/1:24
Distance/Time
To Go:
Arrived

Flight Plot

Page will automatically refresh every two minutes.

Flight plan parsing failed; only flown route is shown


Map Options




Map Legend


Flown Route
Filed Route
Departure Airport
Arrival Airport
Navaid (VOR, NDB)
Fix

Horizontal Profiles

Position Reports

Time Latitude Longitude Heading Altitude Ground
Speed
06-Jun-17 16:20 41.787865 -87.745016 135 628ft 0kts
06-Jun-17 16:21 41.787865 -87.745016 135 627ft 0kts
06-Jun-17 16:22 41.787865 -87.745016 135 627ft 0kts
06-Jun-17 16:23 41.787865 -87.745016 135 627ft 0kts
06-Jun-17 16:24 41.787865 -87.745016 135 627ft 0kts
06-Jun-17 16:25 41.787865 -87.745016 135 627ft 0kts
06-Jun-17 16:26 41.787865 -87.745016 135 627ft 0kts
06-Jun-17 16:27 41.787865 -87.745016 135 627ft 0kts
06-Jun-17 16:28 41.787865 -87.745016 135 627ft 0kts
06-Jun-17 16:29 41.787865 -87.745016 135 627ft 0kts
06-Jun-17 16:30 41.787865 -87.745016 135 627ft 0kts
06-Jun-17 16:31 41.787865 -87.745016 135 627ft 0kts
06-Jun-17 16:32 41.787865 -87.745016 135 627ft 0kts
06-Jun-17 16:33 41.787865 -87.745016 135 627ft 0kts
06-Jun-17 16:34 41.787865 -87.745016 135 627ft 0kts
06-Jun-17 16:35 41.787865 -87.745016 135 627ft 0kts
06-Jun-17 16:36 41.787865 -87.745016 135 627ft 0kts
06-Jun-17 16:37 41.787865 -87.745016 135 627ft 0kts
06-Jun-17 16:38 41.787865 -87.745016 135 627ft 0kts
06-Jun-17 16:39 41.787867 -87.745018 135 627ft 0kts
06-Jun-17 16:40 41.787693 -87.746368 253 628ft 10kts
06-Jun-17 16:41 41.786761 -87.747882 207 628ft 9kts
06-Jun-17 16:42 41.782039 -87.745490 133 628ft 27kts
06-Jun-17 16:43 41.779759 -87.744406 305 628ft 0kts
06-Jun-17 16:44 41.796387 -87.767945 321 1165ft 191kts
06-Jun-17 16:45 41.835013 -87.821624 309 3835ft 255kts
06-Jun-17 16:46 41.854314 -87.917909 265 7309ft 287kts
06-Jun-17 16:47 41.822492 -88.015688 226 10647ft 309kts
06-Jun-17 16:48 41.748200 -88.074515 194 14121ft 320kts
06-Jun-17 16:49 41.659312 -88.065788 158 17260ft 338kts
06-Jun-17 16:50 41.578259 -88.006043 148 20114ft 344kts
06-Jun-17 16:51 41.496614 -87.942125 147 22776ft 346kts
06-Jun-17 16:52 41.411409 -87.887868 167 25098ft 349kts
06-Jun-17 16:53 41.316429 -87.886485 185 27085ft 348kts
06-Jun-17 16:54 41.221081 -87.891264 180 28730ft 349kts
06-Jun-17 16:55 41.125139 -87.888619 181 30158ft 351kts
06-Jun-17 16:56 41.025941 -87.885727 181 30744ft 380kts
06-Jun-17 16:57 40.920381 -87.882503 181 31814ft 391kts
06-Jun-17 16:58 40.815050 -87.879321 181 32829ft 396kts
06-Jun-17 16:59 40.707288 -87.876081 182 33736ft 398kts
06-Jun-17 17:00 40.597957 -87.872825 182 34712ft 401kts
06-Jun-17 17:01 40.487694 -87.869538 182 35689ft 400kts
06-Jun-17 17:02 40.379083 -87.866301 182 36661ft 396kts
06-Jun-17 17:03 40.270534 -87.862449 181 37035ft 407kts
06-Jun-17 17:04 40.155436 -87.857365 181 37036ft 431kts
06-Jun-17 17:05 40.034075 -87.852038 181 37037ft 456kts
06-Jun-17 17:06 39.906155 -87.846438 180 37039ft 482kts
06-Jun-17 17:07 39.771194 -87.840550 180 37029ft 507kts
06-Jun-17 17:08 39.630408 -87.834403 180 37019ft 516kts
06-Jun-17 17:09 39.489359 -87.828307 180 37022ft 516kts
06-Jun-17 17:10 39.346861 -87.822182 180 37026ft 529kts
06-Jun-17 17:11 39.202680 -87.815983 180 37025ft 527kts
06-Jun-17 17:12 39.057605 -87.809788 180 37003ft 537kts
06-Jun-17 17:13 38.909977 -87.803506 180 37002ft 542kts
06-Jun-17 17:14 38.762444 -87.797254 180 36992ft 543kts
06-Jun-17 17:15 38.618628 -87.791183 180 36763ft 527kts
06-Jun-17 17:16 38.472773 -87.785062 180 36754ft 538kts
06-Jun-17 17:17 38.325469 -87.778891 180 36753ft 542kts
06-Jun-17 17:18 38.177371 -87.772714 180 36748ft 544kts
06-Jun-17 17:19 38.028630 -87.766527 180 36729ft 544kts
06-Jun-17 17:20 37.881435 -87.745168 166 36722ft 548kts
06-Jun-17 17:21 37.746137 -87.662769 144 36718ft 552kts
06-Jun-17 17:22 37.614978 -87.570206 154 36724ft 551kts
06-Jun-17 17:23 37.479431 -87.486981 155 36725ft 551kts
06-Jun-17 17:24 37.343576 -87.404350 155 36727ft 552kts
06-Jun-17 17:25 37.208132 -87.322301 155 36723ft 552kts
06-Jun-17 17:26 37.072813 -87.240671 155 36724ft 552kts
06-Jun-17 17:27 36.936680 -87.158868 155 36726ft 551kts
06-Jun-17 17:28 36.801601 -87.078018 155 36719ft 551kts
06-Jun-17 17:29 36.665821 -86.997070 155 36694ft 551kts
06-Jun-17 17:30 36.529288 -86.915994 155 36695ft 551kts
06-Jun-17 17:31 36.393538 -86.835696 155 36697ft 551kts
06-Jun-17 17:32 36.257040 -86.755271 155 36723ft 551kts
06-Jun-17 17:33 36.120996 -86.674194 151 36676ft 552kts
06-Jun-17 17:34 35.989673 -86.581029 150 36684ft 551kts
06-Jun-17 17:35 35.860160 -86.489990 150 36668ft 551kts
06-Jun-17 17:36 35.728882 -86.398075 150 36668ft 550kts
06-Jun-17 17:37 35.598315 -86.305414 150 36368ft 554kts
06-Jun-17 17:38 35.466412 -86.212143 150 35663ft 557kts
06-Jun-17 17:39 35.333800 -86.118524 150 34316ft 562kts
06-Jun-17 17:40 35.200513 -86.024667 150 32833ft 554kts
06-Jun-17 17:41 35.069562 -85.932661 149 31140ft 556kts
06-Jun-17 17:42 34.934986 -85.838259 149 28619ft 573kts
06-Jun-17 17:43 34.802886 -85.745037 146 25643ft 551kts
06-Jun-17 17:44 34.696474 -85.623271 126 22629ft 527kts
06-Jun-17 17:45 34.620498 -85.475719 125 19640ft 511kts
06-Jun-17 17:46 34.507607 -85.398402 184 16574ft 471kts
06-Jun-17 17:47 34.384658 -85.427488 195 13641ft 450kts
06-Jun-17 17:48 34.264838 -85.459434 195 11181ft 441kts
06-Jun-17 17:49 34.162376 -85.485125 195 7905ft 306kts
06-Jun-17 17:50 34.077813 -85.504437 195 5134ft 325kts
06-Jun-17 17:51 33.997978 -85.521911 195 4983ft 276kts
06-Jun-17 17:52 33.920759 -85.529653 185 5010ft 284kts
06-Jun-17 17:53 33.843267 -85.526160 166 5011ft 292kts
06-Jun-17 17:54 33.785906 -85.462746 123 5000ft 289kts
06-Jun-17 17:55 33.744814 -85.384242 122 5034ft 301kts
06-Jun-17 17:56 33.711270 -85.312935 117 5030ft 302kts
06-Jun-17 17:57 33.679669 -85.226311 105 5030ft 279kts
06-Jun-17 17:58 33.662707 -85.140621 91 5023ft 246kts
06-Jun-17 17:59 33.661024 -85.063151 89 4995ft 245kts
06-Jun-17 18:00 33.656730 -84.977165 90 5004ft 260kts
06-Jun-17 18:01 33.654025 -84.897999 89 5017ft 245kts
06-Jun-17 18:02 33.649812 -84.812343 90 5005ft 260kts
06-Jun-17 18:03 33.645841 -84.726257 90 4980ft 260kts
06-Jun-17 18:04 33.649119 -84.640545 85 4358ft 256kts
06-Jun-17 18:05 33.649471 -84.564928 89 3131ft 201kts
06-Jun-17 18:06 33.649508 -84.504241 89 2134ft 177kts
06-Jun-17 18:07 33.649544 -84.451248 89 1268ft 145kts
06-Jun-17 18:08 33.649404 -84.418122 98 1030ft 19kts
06-Jun-17 18:09 33.647953 -84.416495 252 1030ft 17kts
06-Jun-17 18:10 33.649250 -84.628256 86 4197ft 247kts
06-Jun-17 18:11 33.649507 -84.439538 90 1096ft 145kts
06-Jun-17 18:12 33.649471 -84.434869 90 1030ft 138kts
06-Jun-17 18:13 33.649419 -84.426665 88 1030ft 108kts

Navigation Log

Ident Type
Flight plan parsing failed, navigation log unavailable